Time;durP1;ratioP1;P1;durP2;ratioP2;P2;SDS_P1;SDS_P2;PMS_P1;PMS_P2;Temp;Humidity;BMP_temperature;BMP_pressure;BME280_temperature;BME280_humidity;BME280_pressure;Samples;Min_cycle;Max_cycle;Signal;HPM_P1;HPM_P2
2023/09/13 00:02:15;;;;;;;;;;;17.90;99.90;;;;;;7322728;19;11036;-74
2023/09/13 00:04:44;;;;;;;;;;;17.90;99.90;;;;;;7322002;19;9266;-75
2023/09/13 00:07:15;;;;;;;;;;;17.90;99.90;;;;;;7321468;19;9194;-74
2023/09/13 00:09:44;;;;;;;;;;;17.90;99.90;;;;;;7321284;19;9214;-74
2023/09/13 00:12:14;;;;;;;;;;;17.80;99.90;;;;;;7320870;19;10928;-75
2023/09/13 00:14:43;;;;;;;;;;;17.80;99.90;;;;;;7316277;19;10375;-74
2023/09/13 00:17:12;;;;;;;;;;;17.80;99.90;;;;;;7319749;19;9678;-75
2023/09/13 00:19:41;;;;;;;;;;;17.80;99.90;;;;;;7316946;19;9146;-74
2023/09/13 00:22:10;;;;;;;;;;;17.80;99.90;;;;;;7321990;19;9493;-75
2023/09/13 00:24:45;;;;;;;;;;;17.80;99.90;;;;;;7318155;19;9447;-74
2023/09/13 00:27:14;;;;;;;;;;;17.80;99.90;;;;;;7318231;19;9286;-75
2023/09/13 00:30:03;;;;;;;;;;;17.80;99.90;;;;;;7318114;19;9268;-75
2023/09/13 00:32:32;;;;;;;;;;;17.80;99.90;;;;;;7319045;19;9519;-75
2023/09/13 00:35:01;;;;;;;;;;;17.70;99.90;;;;;;7316948;19;10163;-74
2023/09/13 00:37:30;;;;;;;;;;;17.70;99.90;;;;;;7319030;19;10720;-74
2023/09/13 00:40:02;;;;;;;;;;;17.60;99.90;;;;;;7319855;19;9281;-74
2023/09/13 00:42:31;;;;;;;;;;;17.70;99.90;;;;;;7320793;19;9456;-75
2023/09/13 00:45:20;;;;;;;;;;;17.70;99.90;;;;;;7318504;19;10209;-75
2023/09/13 00:47:49;;;;;;;;;;;17.70;99.90;;;;;;7320944;19;9262;-74
2023/09/13 00:50:20;;;;;;;;;;;17.60;99.90;;;;;;7316669;19;10336;-74
2023/09/13 00:52:50;;;;;;;;;;;17.50;99.90;;;;;;7323284;19;10719;-74
2023/09/13 00:55:25;;;;;;;;;;;17.50;99.90;;;;;;7319360;19;9125;-74
2023/09/13 00:57:56;;;;;;;;;;;17.50;99.90;;;;;;7314766;19;9128;-74
2023/09/13 01:00:45;;;;;;;;;;;17.50;99.90;;;;;;7318755;19;9558;-75
2023/09/13 01:03:15;;;;;;;;;;;17.40;99.90;;;;;;7318943;19;9246;-74
2023/09/13 01:05:45;;;;;;;;;;;17.40;99.90;;;;;;7324269;19;9519;-74
2023/09/13 01:08:15;;;;;;;;;;;17.40;99.90;;;;;;7317535;19;9473;-74
2023/09/13 01:11:06;;;;;;;;;;;17.40;99.90;;;;;;7318029;19;9387;-74
2023/09/13 01:13:36;;;;;;;;;;;17.40;99.90;;;;;;7319060;19;9264;-74
2023/09/13 01:16:17;;;;;;;;;;;17.40;99.90;;;;;;7317481;19;9347;-74
2023/09/13 01:18:53;;;;;;;;;;;17.30;99.90;;;;;;7313737;19;9269;-74
2023/09/13 01:22:11;;;;;;;;;;;17.30;99.90;;;;;;7319165;19;11344;-74
2023/09/13 01:25:24;;;;;;;;;;;17.30;99.90;;;;;;7318530;19;10157;-74
2023/09/13 01:28:10;;;;;;;;;;;17.20;99.90;;;;;;7314370;19;9242;-74
2023/09/13 01:30:44;;;;;;;;;;;17.20;99.90;;;;;;7313944;19;9139;-74
2023/09/13 01:33:13;;;;;;;;;;;17.20;99.90;;;;;;7316401;19;9268;-74
2023/09/13 01:35:42;;;;;;;;;;;17.10;99.90;;;;;;7316452;19;9246;-74
2023/09/13 01:38:11;;;;;;;;;;;17.20;99.90;;;;;;7313371;19;9148;-74
2023/09/13 01:40:44;;;;;;;;;;;17.20;99.90;;;;;;7317113;19;9270;-74
2023/09/13 01:43:15;;;;;;;;;;;17.20;99.90;;;;;;7318897;19;10358;-74
2023/09/13 01:45:48;;;;;;;;;;;17.10;99.90;;;;;;7315725;19;9321;-74
2023/09/13 01:48:20;;;;;;;;;;;17.10;99.90;;;;;;7317826;19;8944;-74
2023/09/13 01:50:51;;;;;;;;;;;17.10;99.90;;;;;;7317002;19;9672;-74
2023/09/13 01:53:20;;;;;;;;;;;17.10;99.90;;;;;;7316528;19;9532;-74
2023/09/13 01:55:49;;;;;;;;;;;17.10;99.90;;;;;;7316393;19;9281;-75
2023/09/13 01:58:18;;;;;;;;;;;17.00;99.90;;;;;;7316959;19;9005;-74
2023/09/13 02:00:50;;;;;;;;;;;17.10;99.90;;;;;;7313377;19;10659;-74
2023/09/13 02:03:19;;;;;;;;;;;17.10;99.90;;;;;;7317314;19;9274;-75
2023/09/13 02:05:47;;;;;;;;;;;17.10;99.90;;;;;;7317907;19;9340;-74
2023/09/13 02:08:16;;;;;;;;;;;17.10;99.90;;;;;;7317307;19;9086;-74
2023/09/13 02:10:48;;;;;;;;;;;17.00;99.90;;;;;;7317067;19;9479;-74
2023/09/13 02:13:17;;;;;;;;;;;16.90;99.90;;;;;;7318274;19;9135;-75
2023/09/13 02:15:49;;;;;;;;;;;17.00;99.90;;;;;;7314232;19;9221;-74
2023/09/13 02:18:18;;;;;;;;;;;16.90;99.90;;;;;;7318446;19;9513;-74
2023/09/13 02:20:47;;;;;;;;;;;16.90;99.90;;;;;;7317019;19;9235;-74
2023/09/13 02:23:16;;;;;;;;;;;16.90;99.90;;;;;;7315961;19;9266;-73
2023/09/13 02:26:05;;;;;;;;;;;16.90;99.90;;;;;;7315312;19;9233;-74
2023/09/13 02:28:34;;;;;;;;;;;16.90;99.90;;;;;;7316596;19;9595;-74
2023/09/13 02:31:28;;;;;;;;;;;16.90;99.90;;;;;;7310231;19;9374;-74
2023/09/13 02:33:58;;;;;;;;;;;16.80;99.90;;;;;;7314450;19;9261;-74
2023/09/13 02:36:26;;;;;;;;;;;16.90;99.90;;;;;;7312071;19;10365;-74
2023/09/13 02:38:56;;;;;;;;;;;16.80;99.90;;;;;;7320535;19;9605;-74
2023/09/13 02:41:25;;;;;;;;;;;16.80;99.90;;;;;;7318104;19;9306;-74
2023/09/13 02:43:54;;;;;;;;;;;16.80;99.90;;;;;;7323358;19;9171;-74
2023/09/13 02:46:45;;;;;;;;;;;16.80;99.90;;;;;;7324819;19;9696;-74
2023/09/13 02:49:14;;;;;;;;;;;16.80;99.90;;;;;;7323426;19;9466;-74
2023/09/13 02:51:43;;;;;;;;;;;16.80;99.90;;;;;;7325267;19;9232;-74
2023/09/13 02:54:12;;;;;;;;;;;16.70;99.90;;;;;;7324275;19;9748;-74
2023/09/13 02:56:41;;;;;;;;;;;16.70;99.90;;;;;;7323781;19;9137;-74
2023/09/13 02:59:10;;;;;;;;;;;16.70;99.90;;;;;;7323243;19;9351;-74
2023/09/13 03:01:40;;;;;;;;;;;16.80;99.90;;;;;;7324675;19;9429;-74
2023/09/13 03:04:12;;;;;;;;;;;16.70;99.90;;;;;;7325532;19;9175;-74
2023/09/13 03:06:41;;;;;;;;;;;16.70;99.90;;;;;;7320723;19;9117;-74
2023/09/13 03:09:10;;;;;;;;;;;16.70;99.90;;;;;;7322795;19;9316;-74
2023/09/13 03:12:01;;;;;;;;;;;16.70;99.90;;;;;;7322238;19;9245;-74
2023/09/13 03:14:31;;;;;;;;;;;16.70;99.90;;;;;;7323159;19;9464;-74
2023/09/13 03:17:01;;;;;;;;;;;16.70;99.90;;;;;;7322773;19;9804;-74
2023/09/13 03:19:33;;;;;;;;;;;16.70;99.90;;;;;;7319217;19;9202;-74
2023/09/13 03:22:02;;;;;;;;;;;16.70;99.90;;;;;;7321359;19;9495;-74
2023/09/13 03:24:51;;;;;;;;;;;16.70;99.90;;;;;;7318405;19;9304;-74
2023/09/13 03:27:40;;;;;;;;;;;16.70;99.90;;;;;;7320300;19;9535;-75
2023/09/13 03:30:10;;;;;;;;;;;16.70;99.90;;;;;;7319531;19;9174;-74
2023/09/13 03:32:39;;;;;;;;;;;16.70;99.90;;;;;;7321392;19;9479;-74
2023/09/13 03:35:11;;;;;;;;;;;16.70;99.90;;;;;;7311691;19;11283;-74
2023/09/13 03:37:40;;;;;;;;;;;16.70;99.90;;;;;;7318622;19;9279;-74
2023/09/13 03:40:10;;;;;;;;;;;16.70;99.90;;;;;;7313398;19;10800;-74
2023/09/13 03:42:39;;;;;;;;;;;16.70;99.90;;;;;;7324094;19;9253;-74
2023/09/13 03:45:09;;;;;;;;;;;16.60;99.90;;;;;;7320978;19;9252;-74
2023/09/13 03:47:58;;;;;;;;;;;16.70;99.90;;;;;;7316704;19;9242;-74
2023/09/13 03:50:32;;;;;;;;;;;16.70;99.90;;;;;;7318913;19;9304;-74
2023/09/13 03:53:01;;;;;;;;;;;16.70;99.90;;;;;;7306831;19;9802;-74
2023/09/13 03:55:29;;;;;;;;;;;16.70;99.90;;;;;;7321401;19;9411;-75
2023/09/13 03:57:58;;;;;;;;;;;16.70;99.90;;;;;;7323189;19;9292;-74
2023/09/13 04:00:27;;;;;;;;;;;16.70;99.90;;;;;;7322109;19;9288;-74
2023/09/13 04:02:56;;;;;;;;;;;16.70;99.90;;;;;;7322561;19;9249;-74
2023/09/13 04:05:25;;;;;;;;;;;16.60;99.90;;;;;;7320064;19;9283;-74
2023/09/13 04:07:57;;;;;;;;;;;16.60;99.90;;;;;;7322508;19;9460;-73
2023/09/13 04:10:26;;;;;;;;;;;16.50;99.90;;;;;;7322347;19;9231;-74
2023/09/13 04:12:55;;;;;;;;;;;16.50;99.90;;;;;;7316003;19;9488;-71
2023/09/13 04:15:24;;;;;;;;;;;16.20;99.90;;;;;;7312706;19;9612;-73
2023/09/13 04:17:55;;;;;;;;;;;16.00;99.90;;;;;;7318877;19;9297;-71
2023/09/13 04:20:25;;;;;;;;;;;15.90;99.90;;;;;;7321433;19;9105;-72
2023/09/13 04:22:56;;;;;;;;;;;15.80;99.90;;;;;;7320186;19;9348;-72
2023/09/13 04:25:45;;;;;;;;;;;15.80;99.90;;;;;;7318651;19;11389;-72
2023/09/13 04:28:14;;;;;;;;;;;15.80;99.90;;;;;;7323017;19;9248;-72
2023/09/13 04:30:44;;;;;;;;;;;15.80;99.90;;;;;;7318779;19;9613;-73
2023/09/13 04:33:12;;;;;;;;;;;15.70;99.90;;;;;;7319946;19;9581;-72
2023/09/13 04:35:41;;;;;;;;;;;15.60;99.90;;;;;;7319521;19;9244;-72
2023/09/13 04:38:33;;;;;;;;;;;15.70;99.90;;;;;;7319944;19;9320;-72
2023/09/13 04:41:03;;;;;;;;;;;15.60;99.90;;;;;;7320755;19;9170;-72
2023/09/13 04:43:32;;;;;;;;;;;15.50;99.90;;;;;;7321699;19;9217;-72
2023/09/13 04:46:01;;;;;;;;;;;15.50;99.90;;;;;;7320324;19;9272;-72
2023/09/13 04:48:30;;;;;;;;;;;15.40;99.90;;;;;;7322023;19;9427;-72
2023/09/13 04:51:19;;;;;;;;;;;15.30;99.90;;;;;;7319120;19;9582;-72
2023/09/13 04:53:50;;;;;;;;;;;15.20;99.90;;;;;;7316145;19;9218;-73
2023/09/13 04:56:19;;;;;;;;;;;15.30;99.90;;;;;;7320834;19;9286;-73
2023/09/13 04:58:48;;;;;;;;;;;15.20;99.90;;;;;;7318240;19;9380;-73
2023/09/13 05:01:37;;;;;;;;;;;15.20;99.90;;;;;;7316119;19;9261;-73
2023/09/13 05:04:07;;;;;;;;;;;15.20;99.90;;;;;;7321718;19;9501;-71
2023/09/13 05:06:36;;;;;;;;;;;15.20;99.90;;;;;;7319285;19;9185;-73
2023/09/13 05:09:07;;;;;;;;;;;15.30;99.90;;;;;;7321519;19;9260;-72
2023/09/13 05:11:36;;;;;;;;;;;15.20;99.90;;;;;;7318280;19;10659;-73
2023/09/13 05:14:25;;;;;;;;;;;15.20;99.90;;;;;;7316775;19;8977;-72
2023/09/13 05:17:14;;;;;;;;;;;15.20;99.90;;;;;;7315978;19;9500;-72
2023/09/13 05:19:44;;;;;;;;;;;15.30;99.90;;;;;;7320056;19;9253;-72
2023/09/13 05:22:13;;;;;;;;;;;15.30;99.90;;;;;;7317638;19;9279;-72
2023/09/13 05:24:45;;;;;;;;;;;15.30;99.90;;;;;;7321066;19;9563;-72
2023/09/13 05:27:14;;;;;;;;;;;15.20;99.90;;;;;;7320947;19;9316;-72
2023/09/13 05:29:43;;;;;;;;;;;15.20;99.90;;;;;;7316624;19;9403;-73
2023/09/13 05:32:12;;;;;;;;;;;15.20;99.90;;;;;;7314286;19;9273;-72
2023/09/13 05:34:41;;;;;;;;;;;15.10;99.90;;;;;;7316363;19;9270;-72
2023/09/13 05:37:10;;;;;;;;;;;15.10;99.90;;;;;;7317128;19;9632;-72
2023/09/13 05:39:39;;;;;;;;;;;15.00;99.90;;;;;;7321057;19;9431;-73
2023/09/13 05:42:10;;;;;;;;;;;14.90;99.90;;;;;;7318563;19;9260;-73
2023/09/13 05:44:41;;;;;;;;;;;14.90;99.90;;;;;;7319745;19;9264;-72
2023/09/13 05:47:09;;;;;;;;;;;14.80;99.90;;;;;;7315218;19;9344;-72
2023/09/13 05:49:38;;;;;;;;;;;14.80;99.90;;;;;;7321514;19;9283;-72
2023/09/13 05:52:08;;;;;;;;;;;14.70;99.90;;;;;;7314870;19;9480;-72
2023/09/13 05:54:37;;;;;;;;;;;14.60;99.90;;;;;;7310329;19;10173;-72
2023/09/13 05:57:29;;;;;;;;;;;14.60;99.90;;;;;;7315878;19;9333;-76
2023/09/13 05:59:58;;;;;;;;;;;14.50;99.90;;;;;;7313570;19;9966;-79
2023/09/13 06:02:28;;;;;;;;;;;14.50;99.90;;;;;;7316351;19;9312;-77
2023/09/13 06:04:57;;;;;;;;;;;14.50;99.90;;;;;;7316308;19;10329;-76
2023/09/13 06:07:25;;;;;;;;;;;14.40;99.90;;;;;;7315779;19;9307;-78
2023/09/13 06:10:15;;;;;;;;;;;14.50;99.90;;;;;;7308451;19;9354;-74
2023/09/13 06:13:07;;;;;;;;;;;14.20;99.90;;;;;;7304083;19;9583;-75
2023/09/13 06:15:36;;;;;;;;;;;14.00;99.90;;;;;;7304995;19;10475;-74
2023/09/13 06:18:05;;;;;;;;;;;14.00;99.90;;;;;;7313911;19;9362;-74
2023/09/13 06:20:35;;;;;;;;;;;14.00;99.90;;;;;;7313185;19;9254;-75
2023/09/13 06:23:04;;;;;;;;;;;14.00;99.90;;;;;;7312507;19;9431;-75
2023/09/13 06:25:33;;;;;;;;;;;14.00;99.90;;;;;;7317748;19;9483;-75
2023/09/13 06:28:02;;;;;;;;;;;14.00;99.90;;;;;;7303805;19;9565;-75
2023/09/13 06:30:34;;;;;;;;;;;14.00;99.90;;;;;;7315786;19;9206;-75
2023/09/13 06:33:08;;;;;;;;;;;14.00;99.90;;;;;;7318991;19;9214;-75
2023/09/13 06:35:37;;;;;;;;;;;14.00;99.90;;;;;;7319965;19;9214;-75
2023/09/13 06:38:06;;;;;;;;;;;14.00;99.90;;;;;;7319834;19;9138;-75
2023/09/13 06:40:37;;;;;;;;;;;14.00;99.90;;;;;;7318007;19;9536;-75
2023/09/13 06:43:06;;;;;;;;;;;14.10;99.90;;;;;;7319100;19;9286;-75
2023/09/13 06:45:38;;;;;;;;;;;14.00;99.90;;;;;;7319224;19;9227;-75
2023/09/13 06:48:08;;;;;;;;;;;14.00;99.90;;;;;;7317513;19;9471;-75
2023/09/13 06:50:37;;;;;;;;;;;14.00;99.90;;;;;;7318111;19;9267;-75
2023/09/13 06:53:25;;;;;;;;;;;14.00;99.90;;;;;;7317733;19;9259;-75
2023/09/13 06:55:54;;;;;;;;;;;13.90;99.90;;;;;;7316144;19;9222;-74
2023/09/13 06:58:25;;;;;;;;;;;13.90;99.90;;;;;;7315860;19;9313;-74
2023/09/13 07:00:54;;;;;;;;;;;13.80;99.90;;;;;;7320204;19;9276;-72
2023/09/13 07:03:23;;;;;;;;;;;13.80;99.90;;;;;;7316991;19;10605;-74
2023/09/13 07:06:13;;;;;;;;;;;13.80;99.90;;;;;;7318779;19;9440;-75
2023/09/13 07:08:42;;;;;;;;;;;13.80;99.90;;;;;;7316101;19;9210;-74
2023/09/13 07:11:11;;;;;;;;;;;13.80;99.90;;;;;;7314633;19;10697;-74
2023/09/13 07:13:40;;;;;;;;;;;13.80;99.90;;;;;;7318206;19;9128;-74
2023/09/13 07:16:12;;;;;;;;;;;13.70;99.90;;;;;;7319407;19;8995;-74
2023/09/13 07:19:01;;;;;;;;;;;13.60;99.90;;;;;;7315274;19;9235;-74
2023/09/13 07:21:30;;;;;;;;;;;13.60;99.90;;;;;;7319654;19;10162;-73
2023/09/13 07:23:59;;;;;;;;;;;13.50;99.90;;;;;;7318273;19;9285;-75
2023/09/13 07:26:28;;;;;;;;;;;13.40;99.90;;;;;;7325378;19;9333;-74
2023/09/13 07:28:57;;;;;;;;;;;13.30;99.90;;;;;;7324023;19;9266;-74
2023/09/13 07:31:29;;;;;;;;;;;13.20;99.90;;;;;;7325535;19;9165;-74
2023/09/13 07:34:02;;;;;;;;;;;13.20;99.90;;;;;;7319663;19;9234;-75
2023/09/13 07:36:32;;;;;;;;;;;13.20;99.90;;;;;;7324583;19;9235;-75
2023/09/13 07:39:03;;;;;;;;;;;13.30;99.90;;;;;;7322658;19;9272;-74
2023/09/13 07:41:52;;;;;;;;;;;13.30;99.90;;;;;;7316927;19;9522;-75
2023/09/13 07:44:21;;;;;;;;;;;13.40;99.90;;;;;;7321817;19;9360;-75
2023/09/13 07:46:52;;;;;;;;;;;13.50;99.90;;;;;;7320528;19;9498;-74
2023/09/13 07:49:21;;;;;;;;;;;13.50;99.90;;;;;;7321923;19;9399;-74
2023/09/13 07:51:50;;;;;;;;;;;13.60;99.90;;;;;;7321114;19;9384;-74
2023/09/13 07:54:19;;;;;;;;;;;13.70;99.90;;;;;;7317953;19;9118;-75
2023/09/13 07:57:09;;;;;;;;;;;13.80;99.90;;;;;;7323364;19;9292;-75
2023/09/13 07:59:38;;;;;;;;;;;13.80;99.90;;;;;;7321839;19;9274;-76
2023/09/13 08:02:09;;;;;;;;;;;13.90;99.90;;;;;;7323369;19;9494;-75
2023/09/13 08:04:38;;;;;;;;;;;13.90;99.90;;;;;;7322858;19;9868;-75
2023/09/13 08:07:07;;;;;;;;;;;13.90;99.90;;;;;;7324262;19;9210;-74
2023/09/13 08:09:37;;;;;;;;;;;14.00;99.90;;;;;;7325904;19;9478;-74
2023/09/13 08:12:07;;;;;;;;;;;14.10;99.90;;;;;;7322490;19;9485;-74
2023/09/13 08:14:36;;;;;;;;;;;14.20;99.90;;;;;;7322422;19;10197;-74
2023/09/13 08:17:05;;;;;;;;;;;14.30;99.90;;;;;;7323645;19;10655;-74
2023/09/13 08:19:36;;;;;;;;;;;14.40;99.90;;;;;;7321990;19;9001;-74
2023/09/13 08:22:08;;;;;;;;;;;14.50;99.90;;;;;;7324118;19;9182;-75
2023/09/13 08:24:37;;;;;;;;;;;14.60;99.90;;;;;;7323020;19;9312;-74
2023/09/13 08:27:06;;;;;;;;;;;14.60;99.90;;;;;;7323509;19;9234;-75
2023/09/13 08:29:37;;;;;;;;;;;14.60;99.90;;;;;;7322068;19;9463;-75
2023/09/13 08:32:07;;;;;;;;;;;14.60;99.90;;;;;;7320935;19;9293;-75
2023/09/13 08:34:38;;;;;;;;;;;14.60;99.90;;;;;;7323656;19;9166;-75
2023/09/13 08:37:07;;;;;;;;;;;14.60;99.90;;;;;;7321610;19;9237;-74
2023/09/13 08:39:36;;;;;;;;;;;14.60;99.90;;;;;;7322638;19;9429;-74
2023/09/13 08:42:05;;;;;;;;;;;14.70;99.90;;;;;;7322362;19;10398;-75
2023/09/13 08:44:36;;;;;;;;;;;14.70;99.90;;;;;;7322018;19;9535;-74
2023/09/13 08:47:09;;;;;;;;;;;14.70;99.90;;;;;;7325048;19;9399;-75
2023/09/13 08:49:42;;;;;;;;;;;14.70;99.90;;;;;;7323879;19;9222;-75
2023/09/13 08:52:12;;;;;;;;;;;14.80;99.90;;;;;;7321593;19;9278;-74
2023/09/13 08:54:43;;;;;;;;;;;14.80;99.90;;;;;;7324313;19;9280;-74
2023/09/13 08:57:13;;;;;;;;;;;14.90;99.90;;;;;;7323133;19;9098;-74
2023/09/13 08:59:42;;;;;;;;;;;15.00;99.90;;;;;;7317805;19;10582;-74
2023/09/13 09:02:19;;;;;;;;;;;15.10;99.90;;;;;;7319607;19;9488;-75
2023/09/13 09:04:52;;;;;;;;;;;15.20;99.90;;;;;;7322152;19;9427;-75
2023/09/13 09:07:22;;;;;;;;;;;15.20;99.90;;;;;;7322032;19;9246;-74
2023/09/13 09:09:53;;;;;;;;;;;15.50;99.90;;;;;;7318946;19;9451;-74
2023/09/13 09:12:24;;;;;;;;;;;15.50;99.90;;;;;;7321919;19;9481;-74
2023/09/13 09:14:56;;;;;;;;;;;15.60;99.90;;;;;;7323013;19;10158;-74
2023/09/13 09:17:26;;;;;;;;;;;15.70;99.90;;;;;;7320347;19;9510;-74
2023/09/13 09:19:59;;;;;;;;;;;15.70;99.90;;;;;;7318133;19;10658;-74
2023/09/13 09:22:31;;;;;;;;;;;15.70;99.90;;;;;;7322403;19;9253;-75
2023/09/13 09:25:02;;;;;;;;;;;15.80;99.90;;;;;;7321416;19;9394;-75
2023/09/13 09:27:31;;;;;;;;;;;15.80;99.90;;;;;;7322821;19;9242;-75
2023/09/13 09:30:05;;;;;;;;;;;15.80;99.90;;;;;;7322364;19;9282;-74
2023/09/13 09:32:36;;;;;;;;;;;15.90;99.90;;;;;;7319671;19;9519;-75
2023/09/13 09:35:27;;;;;;;;;;;15.90;99.90;;;;;;7320417;19;9289;-74
2023/09/13 09:37:56;;;;;;;;;;;15.90;99.90;;;;;;7319496;19;9209;-74
2023/09/13 09:40:25;;;;;;;;;;;15.90;99.90;;;;;;7312626;19;9327;-75
2023/09/13 09:42:56;;;;;;;;;;;16.00;99.90;;;;;;7310524;19;9288;-73
2023/09/13 09:45:26;;;;;;;;;;;16.10;99.90;;;;;;7320986;19;9496;-74
2023/09/13 09:47:55;;;;;;;;;;;16.20;99.90;;;;;;7320984;19;9522;-71
2023/09/13 09:50:27;;;;;;;;;;;16.30;99.90;;;;;;7320958;19;9428;-71
2023/09/13 09:52:56;;;;;;;;;;;16.40;99.90;;;;;;7320475;19;9641;-71
2023/09/13 09:55:28;;;;;;;;;;;16.40;99.90;;;;;;7320818;19;9004;-71
2023/09/13 09:57:58;;;;;;;;;;;16.30;99.90;;;;;;7318200;19;9155;-71
2023/09/13 10:00:27;;;;;;;;;;;16.40;99.90;;;;;;7317926;19;9297;-72
2023/09/13 10:02:56;;;;;;;;;;;16.40;99.90;;;;;;7322373;19;9233;-71
2023/09/13 10:05:27;;;;;;;;;;;16.40;99.90;;;;;;7321766;19;9299;-73
2023/09/13 10:07:58;;;;;;;;;;;16.30;99.90;;;;;;7320519;19;9306;-73
2023/09/13 10:10:33;;;;;;;;;;;16.30;99.90;;;;;;7318724;19;9521;-73
2023/09/13 10:13:22;;;;;;;;;;;16.20;99.90;;;;;;7317234;19;9450;-72
2023/09/13 10:16:12;;;;;;;;;;;16.20;99.90;;;;;;7319407;19;9580;-71
2023/09/13 10:18:48;;;;;;;;;;;16.20;99.90;;;;;;7321295;19;9305;-72
2023/09/13 10:21:26;;;;;;;;;;;16.10;99.90;;;;;;7320630;19;11036;-73
2023/09/13 10:24:02;;;;;;;;;;;16.10;99.90;;;;;;7320035;19;9221;-74
2023/09/13 10:26:34;;;;;;;;;;;16.00;99.90;;;;;;7320710;19;9000;-74
2023/09/13 10:29:14;;;;;;;;;;;16.00;99.90;;;;;;7320730;19;11268;-75
2023/09/13 10:31:49;;;;;;;;;;;16.00;99.90;;;;;;7317993;19;9415;-74
2023/09/13 10:34:41;;;;;;;;;;;16.10;99.90;;;;;;7318216;19;9637;-74
2023/09/13 10:37:21;;;;;;;;;;;16.30;99.90;;;;;;7319749;19;8944;-74
2023/09/13 10:39:57;;;;;;;;;;;16.40;99.90;;;;;;7318922;19;9368;-74
2023/09/13 10:42:27;;;;;;;;;;;16.40;99.90;;;;;;7318706;19;11514;-74
2023/09/13 10:44:58;;;;;;;;;;;16.50;99.90;;;;;;7318492;19;9225;-74
2023/09/13 10:47:27;;;;;;;;;;;16.60;99.90;;;;;;7321153;19;9254;-74
2023/09/13 10:50:00;;;;;;;;;;;16.70;99.90;;;;;;7319077;19;9473;-74
2023/09/13 10:52:34;;;;;;;;;;;16.90;99.90;;;;;;7320106;19;9253;-73
2023/09/13 10:55:05;;;;;;;;;;;17.00;99.90;;;;;;7319686;19;9518;-74
2023/09/13 10:57:36;;;;;;;;;;;17.00;99.90;;;;;;7319781;19;9182;-75
2023/09/13 11:00:10;;;;;;;;;;;16.90;99.90;;;;;;7325124;19;9234;-74
2023/09/13 11:02:40;;;;;;;;;;;16.80;99.90;;;;;;7328937;19;9238;-75
2023/09/13 11:05:10;;;;;;;;;;;16.70;99.90;;;;;;7324916;19;9257;-75
2023/09/13 11:07:46;;;;;;;;;;;16.80;99.90;;;;;;7324288;19;9105;-75
2023/09/13 11:10:16;;;;;;;;;;;16.90;99.90;;;;;;7324169;19;9166;-75
2023/09/13 11:12:48;;;;;;;;;;;16.80;99.90;;;;;;7320807;19;9261;-75
2023/09/13 11:15:23;;;;;;;;;;;16.80;99.90;;;;;;7324654;19;9261;-76
2023/09/13 11:17:55;;;;;;;;;;;16.70;99.90;;;;;;7324423;19;10166;-75
2023/09/13 11:20:35;;;;;;;;;;;16.60;99.90;;;;;;7325087;19;9680;-74
2023/09/13 11:23:14;;;;;;;;;;;16.50;99.90;;;;;;7324091;19;9509;-75
2023/09/13 11:25:49;;;;;;;;;;;16.60;99.90;;;;;;7324815;19;10884;-71
2023/09/13 11:28:46;;;;;;;;;;;16.60;99.90;;;;;;7311240;19;9366;-74
2023/09/13 11:31:17;;;;;;;;;;;16.70;99.90;;;;;;7322583;19;9326;-74
2023/09/13 11:33:55;;;;;;;;;;;17.00;99.90;;;;;;7315339;19;9261;-74
2023/09/13 11:36:26;;;;;;;;;;;17.20;99.90;;;;;;7319419;19;9319;-75
2023/09/13 11:39:04;;;;;;;;;;;17.20;99.90;;;;;;7322523;19;10607;-75
2023/09/13 11:41:40;;;;;;;;;;;17.20;99.90;;;;;;7321718;19;9246;-74
2023/09/13 11:44:30;;;;;;;;;;;17.20;99.90;;;;;;7314268;19;10268;-75
2023/09/13 11:47:20;;;;;;;;;;;17.20;99.90;;;;;;7315035;19;9470;-74
2023/09/13 11:49:50;;;;;;;;;;;17.40;99.90;;;;;;7318053;19;9297;-74
2023/09/13 11:52:22;;;;;;;;;;;17.70;99.90;;;;;;7321375;19;9132;-75
2023/09/13 11:55:00;;;;;;;;;;;17.70;99.90;;;;;;7315601;19;10621;-74
2023/09/13 11:57:53;;;;;;;;;;;17.80;99.90;;;;;;7319403;19;10445;-75
2023/09/13 12:00:24;;;;;;;;;;;18.00;99.90;;;;;;7315929;19;9198;-75
2023/09/13 12:02:53;;;;;;;;;;;17.90;99.90;;;;;;7322220;19;10942;-74
2023/09/13 12:05:24;;;;;;;;;;;17.80;99.90;;;;;;7322312;19;9611;-75
2023/09/13 12:08:27;;;;;;;;;;;17.70;99.90;;;;;;7319238;19;9255;-74
2023/09/13 12:11:03;;;;;;;;;;;17.50;99.90;;;;;;7319049;19;9198;-75
2023/09/13 12:13:49;;;;;;;;;;;17.40;99.90;;;;;;7315867;19;9278;-75
2023/09/13 12:16:19;;;;;;;;;;;17.50;99.90;;;;;;7321662;19;9350;-74
2023/09/13 12:18:48;;;;;;;;;;;17.60;99.90;;;;;;7325566;19;9205;-74
2023/09/13 12:21:17;;;;;;;;;;;17.90;99.90;;;;;;7322992;19;9332;-75
2023/09/13 12:23:48;;;;;;;;;;;18.10;99.90;;;;;;7320739;19;9297;-75
2023/09/13 12:26:23;;;;;;;;;;;17.90;99.90;;;;;;7322192;19;9551;-74
2023/09/13 12:28:54;;;;;;;;;;;18.00;99.90;;;;;;7323438;19;9308;-74
2023/09/13 12:31:24;;;;;;;;;;;17.90;99.90;;;;;;7322599;19;9706;-75
2023/09/13 12:33:55;;;;;;;;;;;17.90;99.90;;;;;;7323537;19;9907;-74
2023/09/13 12:36:25;;;;;;;;;;;17.70;99.90;;;;;;7325256;19;9145;-75
2023/09/13 12:38:55;;;;;;;;;;;17.60;99.90;;;;;;7324749;19;9266;-74
2023/09/13 12:41:33;;;;;;;;;;;17.70;99.90;;;;;;7323710;19;9310;-74
2023/09/13 12:44:23;;;;;;;;;;;17.70;99.90;;;;;;7318232;19;9552;-74
2023/09/13 12:46:53;;;;;;;;;;;17.80;99.90;;;;;;7324134;19;11180;-75
2023/09/13 12:49:22;;;;;;;;;;;17.70;99.90;;;;;;7320398;19;9285;-74
2023/09/13 12:51:53;;;;;;;;;;;17.60;99.90;;;;;;7324172;19;9257;-74
2023/09/13 12:54:23;;;;;;;;;;;17.50;99.90;;;;;;7322722;19;10191;-75
2023/09/13 12:56:55;;;;;;;;;;;17.40;99.90;;;;;;7323736;19;9274;-74
2023/09/13 12:59:24;;;;;;;;;;;17.30;99.90;;;;;;7323977;19;10202;-74
2023/09/13 13:01:59;;;;;;;;;;;17.20;99.90;;;;;;7323624;19;10466;-74
2023/09/13 13:04:33;;;;;;;;;;;17.10;99.90;;;;;;7322102;19;10977;-74
2023/09/13 13:07:03;;;;;;;;;;;17.00;99.90;;;;;;7321130;19;9252;-74
2023/09/13 13:09:33;;;;;;;;;;;17.00;99.90;;;;;;7323391;19;8968;-74
2023/09/13 13:12:05;;;;;;;;;;;16.90;99.90;;;;;;7320619;19;9277;-74
2023/09/13 13:14:34;;;;;;;;;;;17.00;99.90;;;;;;7323043;19;9254;-74
2023/09/13 13:17:03;;;;;;;;;;;17.00;99.90;;;;;;7323562;19;10310;-74
2023/09/13 13:19:34;;;;;;;;;;;17.10;99.90;;;;;;7322863;19;9207;-74
2023/09/13 13:22:04;;;;;;;;;;;17.20;99.30;;;;;;7319458;19;9311;-74
2023/09/13 13:24:33;;;;;;;;;;;17.20;97.80;;;;;;7323103;19;9542;-74
2023/09/13 13:27:28;;;;;;;;;;;17.30;99.20;;;;;;7320293;19;9353;-74
2023/09/13 13:29:57;;;;;;;;;;;17.30;99.00;;;;;;7321955;19;9278;-74
2023/09/13 13:32:26;;;;;;;;;;;17.40;97.20;;;;;;7323260;19;8944;-75
2023/09/13 13:34:56;;;;;;;;;;;17.40;97.70;;;;;;7322964;19;9302;-75
2023/09/13 13:37:25;;;;;;;;;;;17.50;96.00;;;;;;7317680;19;9649;-75
2023/09/13 13:39:54;;;;;;;;;;;17.50;96.60;;;;;;7321481;19;9684;-76
2023/09/13 13:42:26;;;;;;;;;;;17.60;95.60;;;;;;7321868;19;9470;-75
2023/09/13 13:44:55;;;;;;;;;;;17.60;95.90;;;;;;7320747;19;9461;-76
2023/09/13 13:47:24;;;;;;;;;;;17.60;96.10;;;;;;7321409;19;10311;-75
2023/09/13 13:49:53;;;;;;;;;;;17.60;96.10;;;;;;7316335;19;9318;-76
2023/09/13 13:52:22;;;;;;;;;;;17.70;95.80;;;;;;7320700;19;9240;-76
2023/09/13 13:54:52;;;;;;;;;;;17.60;94.10;;;;;;7323173;19;9241;-76
2023/09/13 13:57:21;;;;;;;;;;;17.50;94.50;;;;;;7321140;19;9262;-75
2023/09/13 13:59:53;;;;;;;;;;;17.50;96.70;;;;;;7322703;19;9124;-75
2023/09/13 14:02:22;;;;;;;;;;;17.50;95.90;;;;;;7322608;19;11170;-75
2023/09/13 14:05:14;;;;;;;;;;;17.50;96.20;;;;;;7320617;19;9372;-75
2023/09/13 14:07:43;;;;;;;;;;;17.60;98.20;;;;;;7322183;19;9640;-75
2023/09/13 14:10:12;;;;;;;;;;;17.50;97.00;;;;;;7319313;19;9257;-75
2023/09/13 14:12:41;;;;;;;;;;;17.50;96.30;;;;;;7321733;19;9270;-75
2023/09/13 14:15:13;;;;;;;;;;;17.50;97.50;;;;;;7321572;19;9207;-75
2023/09/13 14:17:42;;;;;;;;;;;17.50;98.00;;;;;;7319063;19;10166;-76
2023/09/13 14:20:14;;;;;;;;;;;17.50;96.70;;;;;;7320115;19;9242;-76
2023/09/13 14:22:43;;;;;;;;;;;17.50;95.90;;;;;;7319952;19;9270;-75
2023/09/13 14:25:12;;;;;;;;;;;17.50;93.10;;;;;;7321805;19;9303;-76
2023/09/13 14:27:42;;;;;;;;;;;17.60;91.20;;;;;;7321360;19;9608;-76
2023/09/13 14:30:14;;;;;;;;;;;17.70;89.20;;;;;;7321810;19;10382;-76
2023/09/13 14:32:45;;;;;;;;;;;17.90;91.70;;;;;;7320135;19;10322;-75
2023/09/13 14:35:15;;;;;;;;;;;17.70;91.50;;;;;;7326578;19;9408;-75
2023/09/13 14:37:44;;;;;;;;;;;17.70;92.70;;;;;;7326371;19;9230;-75
2023/09/13 14:40:13;;;;;;;;;;;17.90;94.10;;;;;;7325863;19;10455;-75
2023/09/13 14:42:42;;;;;;;;;;;17.80;93.20;;;;;;7326529;19;9267;-75
2023/09/13 14:45:14;;;;;;;;;;;17.90;91.70;;;;;;7326831;19;11145;-75
2023/09/13 14:47:43;;;;;;;;;;;17.80;91.40;;;;;;7327251;19;9567;-75
2023/09/13 14:50:13;;;;;;;;;;;17.70;91.40;;;;;;7326192;19;10859;-75
2023/09/13 14:52:41;;;;;;;;;;;17.80;92.10;;;;;;7325590;19;9233;-75
2023/09/13 14:55:13;;;;;;;;;;;17.60;92.10;;;;;;7326692;19;9473;-76
2023/09/13 14:57:42;;;;;;;;;;;17.40;93.30;;;;;;7327385;19;9249;-75
2023/09/13 15:00:16;;;;;;;;;;;17.20;93.30;;;;;;7325643;19;9309;-73
2023/09/13 15:02:45;;;;;;;;;;;17.20;92.90;;;;;;7327588;19;9174;-72